Time;durP1;ratioP1;P1;durP2;ratioP2;P2;SDS_P1;SDS_P2;PMS_P1;PMS_P2;Temp;Humidity;BMP_temperature;BMP_pressure;BME280_temperature;BME280_humidity;BME280_pressure;Samples;Min_cycle;Max_cycle;Signal;HPM_P1;HPM_P2
2024/03/14 00:00:22;;;;;;;17.08;8.20;;;10.30;99.90;;;;;;4988990;29;20036;-86
2024/03/14 00:02:49;;;;;;;14.75;8.75;;;10.30;99.90;;;;;;4969569;29;20039;-85
2024/03/14 00:05:15;;;;;;;15.23;8.70;;;10.30;99.90;;;;;;4972560;29;20635;-86
2024/03/14 00:07:43;;;;;;;13.20;8.07;;;10.40;99.90;;;;;;4972902;29;20055;-85
2024/03/14 00:10:09;;;;;;;15.65;9.02;;;10.30;99.90;;;;;;4971663;29;20054;-85
2024/03/14 00:12:36;;;;;;;14.40;7.68;;;10.30;99.90;;;;;;4967867;29;20039;-86
2024/03/14 00:15:04;;;;;;;14.85;8.70;;;10.40;99.90;;;;;;4972800;29;20135;-86
2024/03/14 00:17:32;;;;;;;11.23;7.28;;;10.30;99.90;;;;;;4972663;29;20071;-85
2024/03/14 00:20:00;;;;;;;14.93;8.55;;;10.50;99.90;;;;;;4969772;29;20154;-86
2024/03/14 00:22:27;;;;;;;13.57;7.63;;;10.30;99.90;;;;;;4986034;29;20046;-86
2024/03/14 00:24:53;;;;;;;13.90;8.52;;;10.30;99.90;;;;;;4980057;29;20035;-85
2024/03/14 00:27:20;;;;;;;11.82;7.50;;;10.30;99.90;;;;;;4966207;29;20042;-86
2024/03/14 00:29:47;;;;;;;11.98;6.68;;;10.30;99.90;;;;;;4966621;29;20043;-85
2024/03/14 00:32:13;;;;;;;15.73;6.72;;;10.30;99.90;;;;;;4960048;29;20047;-86
2024/03/14 00:34:40;;;;;;;10.98;6.38;;;10.50;99.90;;;;;;4962369;29;20097;-86
2024/03/14 00:37:07;;;;;;;12.45;7.03;;;10.30;99.90;;;;;;4965507;29;20042;-85
2024/03/14 00:39:34;;;;;;;13.35;6.45;;;10.30;99.90;;;;;;4968069;29;20043;-86
2024/03/14 00:42:00;;;;;;;11.73;6.50;;;10.30;99.90;;;;;;4968087;29;20515;-86
2024/03/14 00:44:27;;;;;;;12.40;6.70;;;10.50;99.90;;;;;;4967443;29;20040;-86
2024/03/14 00:46:53;;;;;;;9.27;5.78;;;10.30;99.90;;;;;;4967350;29;20501;-86
2024/03/14 00:49:20;;;;;;;10.85;6.07;;;10.40;99.90;;;;;;4984215;29;20074;-86
2024/03/14 00:51:47;;;;;;;11.57;6.07;;;10.30;99.90;;;;;;4972240;29;20126;-86
2024/03/14 00:54:13;;;;;;;11.18;5.85;;;10.50;99.90;;;;;;4987880;29;20126;-86
2024/03/14 00:56:43;;;;;;;11.73;6.20;;;10.30;99.90;;;;;;4967633;29;20047;-86
2024/03/14 00:59:12;;;;;;;10.25;6.35;;;10.40;99.90;;;;;;4971393;29;20043;-86
2024/03/14 01:01:44;;;;;;;11.43;6.13;;;10.30;99.90;;;;;;4966637;29;20498;-86
2024/03/14 01:04:11;;;;;;;10.77;6.28;;;10.30;99.90;;;;;;4971773;29;20043;-86
2024/03/14 01:06:38;;;;;;;10.93;6.05;;;10.20;99.90;;;;;;4987783;29;20047;-86
2024/03/14 01:09:08;;;;;;;9.48;6.10;;;10.20;99.90;;;;;;4971868;29;20066;-86
2024/03/14 01:11:35;;;;;;;11.00;5.72;;;10.20;99.90;;;;;;4983473;29;20405;-85
2024/03/14 01:14:01;;;;;;;9.65;5.97;;;10.30;99.90;;;;;;4971468;29;20040;-86
2024/03/14 01:16:29;;;;;;;11.25;5.82;;;10.90;99.90;;;;;;4971768;29;20094;-86
2024/03/14 01:18:56;;;;;;;10.63;6.05;;;10.30;99.90;;;;;;4958651;29;20122;-85
2024/03/14 01:21:22;;;;;;;10.95;6.30;;;10.20;99.90;;;;;;4960046;29;20235;-86
2024/03/14 01:23:49;;;;;;;14.57;6.00;;;10.20;99.90;;;;;;4961206;29;20035;-86
2024/03/14 01:26:16;;;;;;;9.02;5.32;;;10.20;99.90;;;;;;4987817;29;20050;-86
2024/03/14 01:28:42;;;;;;;8.90;5.78;;;10.20;99.90;;;;;;4969405;29;20043;-85
2024/03/14 01:31:09;;;;;;;8.30;5.38;;;10.30;99.90;;;;;;4963723;29;20044;-86
2024/03/14 01:33:36;;;;;;;9.32;6.22;;;10.20;99.90;;;;;;4969447;29;20117;-86
2024/03/14 01:36:04;;;;;;;9.90;6.28;;;10.20;99.90;;;;;;4970450;29;20043;-86
2024/03/14 01:38:31;;;;;;;11.00;5.18;;;10.20;99.90;;;;;;4980634;29;20083;-86
2024/03/14 01:40:58;;;;;;;10.55;6.30;;;10.40;99.90;;;;;;4964993;29;20499;-86
2024/03/14 01:43:24;;;;;;;10.10;5.68;;;10.20;99.90;;;;;;4987514;29;20054;-86
2024/03/14 01:45:51;;;;;;;10.68;6.55;;;10.50;99.90;;;;;;4977978;29;20044;-86
2024/03/14 01:48:18;;;;;;;9.10;5.55;;;10.20;99.90;;;;;;4967665;29;20056;-85
2024/03/14 01:50:44;;;;;;;11.18;6.22;;;10.70;99.90;;;;;;4962556;29;20056;-85
2024/03/14 01:53:11;;;;;;;11.45;6.43;;;10.30;99.90;;;;;;4971743;29;20420;-86
2024/03/14 01:55:38;;;;;;;11.25;6.07;;;10.20;99.90;;;;;;4971733;29;20508;-86
2024/03/14 01:58:06;;;;;;;11.73;6.65;;;10.20;99.90;;;;;;4970724;29;20043;-85
2024/03/14 02:00:41;;;;;;;10.93;5.95;;;10.20;99.90;;;;;;4975463;29;20050;-85
2024/03/14 02:03:08;;;;;;;9.65;6.28;;;10.20;99.90;;;;;;4988343;29;20048;-86
2024/03/14 02:05:45;;;;;;;11.05;6.70;;;10.20;99.90;;;;;;4956891;29;20516;-85
2024/03/14 02:08:12;;;;;;;12.27;7.40;;;10.20;99.90;;;;;;4974689;29;20066;-85
2024/03/14 02:10:39;;;;;;;13.40;6.93;;;10.20;99.90;;;;;;4974960;29;20055;-86
2024/03/14 02:13:06;;;;;;;11.43;6.75;;;10.10;99.90;;;;;;4990565;29;20122;-86
2024/03/14 02:15:34;;;;;;;10.13;6.43;;;10.10;99.90;;;;;;4963277;29;20047;-86
2024/03/14 02:18:00;;;;;;;12.05;7.20;;;10.10;99.90;;;;;;4967461;29;20042;-86
2024/03/14 02:20:27;;;;;;;11.73;6.90;;;10.10;99.90;;;;;;4989866;29;20043;-86
2024/03/14 02:22:53;;;;;;;13.15;6.90;;;10.00;99.90;;;;;;4968185;29;20077;-86
2024/03/14 02:25:20;;;;;;;15.45;7.30;;;10.00;99.90;;;;;;4974815;29;20062;-86
2024/03/14 02:27:48;;;;;;;11.88;7.18;;;10.10;99.90;;;;;;4972929;29;20050;-86
2024/03/14 02:30:15;;;;;;;11.43;7.05;;;10.30;99.90;;;;;;4971498;29;20114;-86
2024/03/14 02:32:41;;;;;;;11.70;6.85;;;9.90;99.90;;;;;;4972992;29;20039;-86
2024/03/14 02:35:09;;;;;;;14.90;7.10;;;9.90;99.90;;;;;;4974624;29;20098;-86
2024/03/14 02:37:36;;;;;;;12.68;7.40;;;9.90;99.90;;;;;;4972629;29;20489;-86
2024/03/14 02:40:06;;;;;;;12.98;7.43;;;9.80;99.90;;;;;;4974457;29;20118;-86
2024/03/14 02:42:32;;;;;;;12.88;7.47;;;9.80;99.90;;;;;;4964594;29;20040;-86
2024/03/14 02:45:00;;;;;;;11.43;7.72;;;9.80;99.90;;;;;;4966883;29;20123;-85
2024/03/14 02:47:27;;;;;;;13.80;7.82;;;9.80;99.90;;;;;;4985686;29;20137;-85
2024/03/14 02:49:56;;;;;;;12.25;7.38;;;9.70;99.90;;;;;;4963252;29;20043;-85
2024/03/14 02:52:23;;;;;;;10.98;7.40;;;9.70;99.90;;;;;;4974355;29;20035;-85
2024/03/14 02:54:50;;;;;;;12.82;7.40;;;10.00;99.90;;;;;;4974192;29;20031;-86
2024/03/14 02:57:17;;;;;;;11.02;6.93;;;9.50;99.90;;;;;;4969441;29;20032;-86
2024/03/14 02:59:43;;;;;;;15.98;7.68;;;10.00;99.90;;;;;;4965791;29;20118;-86
2024/03/14 03:02:15;;;;;;;13.15;7.82;;;9.70;99.90;;;;;;4989867;29;20094;-86
2024/03/14 03:04:44;;;;;;;12.10;7.38;;;9.90;99.90;;;;;;4961340;29;20032;-86
2024/03/14 03:07:10;;;;;;;14.02;8.15;;;9.60;99.90;;;;;;4973859;29;20058;-86
2024/03/14 03:09:38;;;;;;;18.45;8.38;;;9.70;99.90;;;;;;4974696;29;20055;-86
2024/03/14 03:12:05;;;;;;;13.45;8.15;;;10.10;99.90;;;;;;4987672;29;20039;-86
2024/03/14 03:14:31;;;;;;;12.35;8.02;;;9.60;99.90;;;;;;4966195;29;20047;-86
2024/03/14 03:16:58;;;;;;;15.05;8.55;;;9.50;99.90;;;;;;4973951;29;20786;-86
2024/03/14 03:19:25;;;;;;;13.68;8.43;;;9.50;99.90;;;;;;4983815;29;20043;-86
2024/03/14 03:21:51;;;;;;;15.35;8.27;;;9.50;99.90;;;;;;4969147;29;20046;-86
2024/03/14 03:24:18;;;;;;;15.27;8.73;;;9.40;99.90;;;;;;4971951;29;20043;-86
2024/03/14 03:26:45;;;;;;;13.85;8.82;;;9.90;99.90;;;;;;4973790;29;20043;-86
2024/03/14 03:29:13;;;;;;;16.90;8.82;;;9.40;99.90;;;;;;4973717;29;20031;-86
2024/03/14 03:31:40;;;;;;;13.00;8.13;;;9.30;99.90;;;;;;4973937;29;20047;-86
2024/03/14 03:34:07;;;;;;;14.40;8.95;;;9.30;99.90;;;;;;4973777;29;20043;-86
2024/03/14 03:36:33;;;;;;;16.65;8.45;;;9.20;99.90;;;;;;4973186;29;20047;-86
2024/03/14 03:39:12;;;;;;;13.27;8.52;;;9.30;99.90;;;;;;4962285;29;20393;-86
2024/03/14 03:41:38;;;;;;;14.88;8.60;;;9.80;99.90;;;;;;4965771;29;20730;-86
2024/03/14 03:44:05;;;;;;;14.65;8.32;;;9.00;99.90;;;;;;4973285;29;20035;-86
2024/03/14 03:46:32;;;;;;;14.20;8.70;;;9.20;99.90;;;;;;4973213;29;20130;-86
2024/03/14 03:48:59;;;;;;;14.07;9.23;;;8.90;99.90;;;;;;4983386;29;20051;-85
2024/03/14 03:51:25;;;;;;;15.32;9.05;;;8.90;99.90;;;;;;4970498;29;20075;-86
2024/03/14 03:53:52;;;;;;;16.17;10.10;;;8.90;99.90;;;;;;4963879;29;20035;-86
2024/03/14 03:56:19;;;;;;;17.08;9.05;;;8.90;99.90;;;;;;4960379;29;20051;-85
2024/03/14 03:58:46;;;;;;;15.70;9.27;;;9.10;99.90;;;;;;4972846;29;20042;-86
2024/03/14 04:01:12;;;;;;;17.13;9.52;;;9.20;99.90;;;;;;4964184;29;20485;-85
2024/03/14 04:03:42;;;;;;;15.43;9.88;;;8.90;99.90;;;;;;4970264;28;20035;-86
2024/03/14 04:06:15;;;;;;;17.38;10.02;;;8.90;99.90;;;;;;4973211;29;20039;-86
2024/03/14 04:08:45;;;;;;;16.88;9.88;;;8.90;99.90;;;;;;4983683;29;20103;-86
2024/03/14 04:11:12;;;;;;;18.02;10.27;;;9.30;99.90;;;;;;4972794;29;20116;-86
2024/03/14 04:13:38;;;;;;;16.73;9.73;;;8.90;99.90;;;;;;4972845;29;20489;-86
2024/03/14 04:16:05;;;;;;;17.42;9.85;;;8.90;99.90;;;;;;4967827;29;20497;-86
2024/03/14 04:18:32;;;;;;;15.73;10.35;;;8.90;99.90;;;;;;4972808;28;20035;-85
2024/03/14 04:20:59;;;;;;;18.48;10.57;;;8.90;99.90;;;;;;4959939;29;20077;-86
2024/03/14 04:23:25;;;;;;;16.02;10.27;;;8.90;99.90;;;;;;4968293;29;20043;-86
2024/03/14 04:25:56;;;;;;;19.35;10.68;;;8.90;99.90;;;;;;4972375;29;20481;-86
2024/03/14 04:28:25;;;;;;;18.17;10.23;;;9.10;99.90;;;;;;4972448;29;20508;-85
2024/03/14 04:30:52;;;;;;;17.08;9.75;;;8.90;99.90;;;;;;4972014;29;20086;-86
2024/03/14 04:33:19;;;;;;;17.88;10.23;;;8.90;99.90;;;;;;4986746;29;20047;-86
2024/03/14 04:35:46;;;;;;;14.85;10.10;;;8.90;99.90;;;;;;4965268;29;20058;-85
2024/03/14 04:38:12;;;;;;;16.67;10.63;;;8.90;99.90;;;;;;4959650;29;20474;-86
2024/03/14 04:40:39;;;;;;;17.40;9.90;;;8.90;99.90;;;;;;4972447;29;20112;-86
2024/03/14 04:43:09;;;;;;;16.88;9.27;;;8.90;99.90;;;;;;4967510;29;20050;-86
2024/03/14 04:45:35;;;;;;;16.83;9.70;;;9.00;99.90;;;;;;4971613;29;20043;-86
2024/03/14 04:48:05;;;;;;;15.80;9.48;;;10.00;99.90;;;;;;4971943;29;20457;-86
2024/03/14 04:50:31;;;;;;;17.23;9.73;;;8.90;99.90;;;;;;4963963;29;20043;-86
2024/03/14 04:52:58;;;;;;;14.82;9.10;;;9.00;99.90;;;;;;4965521;29;20496;-86
2024/03/14 04:55:24;;;;;;;14.60;9.45;;;9.00;99.90;;;;;;4963762;29;20134;-86
2024/03/14 04:57:51;;;;;;;15.27;9.27;;;9.30;99.90;;;;;;4971637;29;20069;-86
2024/03/14 05:02:49;;;;;;;15.65;9.80;;;9.00;99.90;;;;;;4986376;29;20106;-86
2024/03/14 05:05:16;;;;;;;16.27;9.38;;;8.90;99.90;;;;;;4965568;29;20432;-85
2024/03/14 05:07:43;;;;;;;16.08;9.32;;;8.90;99.90;;;;;;4987855;29;20051;-86
2024/03/14 05:10:14;;;;;;;15.60;9.88;;;8.90;99.90;;;;;;4972360;29;20501;-86
2024/03/14 05:12:41;;;;;;;17.48;9.27;;;8.90;99.90;;;;;;4968028;29;20067;-85
2024/03/14 05:15:07;;;;;;;15.73;9.68;;;8.90;99.90;;;;;;4972246;29;20070;-85
2024/03/14 05:17:36;;;;;;;14.90;9.43;;;8.70;99.90;;;;;;4971962;29;20075;-86
2024/03/14 05:20:06;;;;;;;14.82;9.18;;;8.70;99.90;;;;;;4974786;29;20043;-86
2024/03/14 05:22:33;;;;;;;14.55;8.55;;;8.70;99.90;;;;;;4960691;29;20042;-86
2024/03/14 05:25:06;;;;;;;13.57;8.57;;;9.30;99.90;;;;;;4968967;29;20050;-86
2024/03/14 05:27:32;;;;;;;16.75;8.85;;;8.60;99.90;;;;;;4956760;29;20040;-85
2024/03/14 05:29:59;;;;;;;14.40;9.65;;;8.80;99.90;;;;;;4963748;28;20378;-86
2024/03/14 05:32:29;;;;;;;17.63;9.38;;;8.70;99.90;;;;;;4975044;29;20158;-86
2024/03/14 05:34:55;;;;;;;14.98;9.15;;;8.50;99.90;;;;;;4973758;29;20089;-86
2024/03/14 05:37:22;;;;;;;14.05;9.25;;;9.40;99.90;;;;;;4964121;29;20699;-86
2024/03/14 05:39:49;;;;;;;14.68;9.05;;;8.60;99.90;;;;;;4969100;29;20065;-85
2024/03/14 05:42:18;;;;;;;14.27;8.93;;;8.50;99.90;;;;;;4975408;29;20043;-85
2024/03/14 05:44:48;;;;;;;14.32;8.82;;;8.50;99.90;;;;;;4967418;29;20039;-86
2024/03/14 05:47:17;;;;;;;14.75;8.65;;;8.50;99.90;;;;;;4967251;29;20080;-86
2024/03/14 05:49:44;;;;;;;14.27;8.50;;;8.40;99.90;;;;;;4969230;29;20039;-86
2024/03/14 05:52:11;;;;;;;15.05;8.85;;;8.40;99.90;;;;;;4967119;29;20471;-86
2024/03/14 05:54:38;;;;;;;12.27;8.45;;;8.40;99.90;;;;;;4971682;29;20043;-86
2024/03/14 05:57:05;;;;;;;13.32;8.55;;;8.40;99.90;;;;;;4975388;29;20054;-85
2024/03/14 05:59:32;;;;;;;15.52;8.75;;;8.60;99.90;;;;;;4983234;29;20729;-86
2024/03/14 06:01:58;;;;;;;16.40;9.18;;;8.40;99.90;;;;;;4975265;29;20050;-86
2024/03/14 06:04:25;;;;;;;13.93;8.00;;;8.40;99.90;;;;;;4974912;29;20043;-86
2024/03/14 06:06:52;;;;;;;14.48;8.93;;;8.50;99.90;;;;;;4975005;29;20046;-86
2024/03/14 06:09:31;;;;;;;13.85;8.60;;;8.40;99.90;;;;;;4958816;29;20063;-86
2024/03/14 06:11:59;;;;;;;14.32;9.40;;;8.50;99.90;;;;;;4979808;29;20083;-86
2024/03/14 06:14:26;;;;;;;13.45;8.40;;;8.50;99.90;;;;;;4971343;29;20051;-86
2024/03/14 06:16:52;;;;;;;14.57;8.77;;;8.50;99.90;;;;;;4974888;29;20053;-86
2024/03/14 06:19:21;;;;;;;15.30;9.40;;;8.60;99.90;;;;;;4955510;29;20043;-86
2024/03/14 06:21:49;;;;;;;14.73;8.90;;;8.60;99.90;;;;;;4974736;29;20043;-86
2024/03/14 06:24:19;;;;;;;14.60;9.18;;;8.50;99.90;;;;;;4975025;29;20520;-86
2024/03/14 06:26:46;;;;;;;14.15;8.57;;;8.60;99.90;;;;;;4959479;29;20110;-86
2024/03/14 06:29:13;;;;;;;13.82;9.23;;;8.60;99.90;;;;;;4974269;29;20035;-86
2024/03/14 06:31:41;;;;;;;14.88;9.55;;;8.60;99.90;;;;;;4970347;29;20472;-86
2024/03/14 06:34:11;;;;;;;19.08;9.57;;;8.60;99.90;;;;;;4988788;29;20042;-86
2024/03/14 06:36:38;;;;;;;16.42;9.38;;;8.70;99.90;;;;;;4956330;29;20044;-86
2024/03/14 06:39:07;;;;;;;14.65;9.27;;;8.80;99.90;;;;;;4971053;29;20045;-86
2024/03/14 06:41:39;;;;;;;14.95;9.43;;;8.90;99.90;;;;;;4974651;28;20043;-86
2024/03/14 06:44:07;;;;;;;15.10;9.25;;;9.50;99.90;;;;;;4981637;29;20127;-86
2024/03/14 06:46:33;;;;;;;18.92;10.05;;;8.80;99.90;;;;;;4968522;29;20040;-86
2024/03/14 06:49:02;;;;;;;18.30;10.65;;;9.50;99.90;;;;;;4964529;29;20039;-86
2024/03/14 06:51:28;;;;;;;14.93;9.88;;;8.80;99.90;;;;;;4971357;29;20456;-86
2024/03/14 06:53:55;;;;;;;17.40;10.23;;;9.80;99.90;;;;;;4964473;29;20122;-86
2024/03/14 06:56:23;;;;;;;18.15;10.02;;;8.80;99.90;;;;;;4964662;29;20101;-86
2024/03/14 06:58:50;;;;;;;16.23;10.23;;;9.40;99.90;;;;;;4971608;29;20039;-86
2024/03/14 07:01:17;;;;;;;14.98;9.80;;;8.80;99.90;;;;;;4971276;29;20046;-86
2024/03/14 07:03:44;;;;;;;14.80;9.65;;;8.80;99.90;;;;;;4981618;28;20456;-86
2024/03/14 07:06:14;;;;;;;21.73;10.98;;;8.80;99.90;;;;;;4975020;29;20831;-86
2024/03/14 07:08:42;;;;;;;17.35;11.30;;;9.00;99.90;;;;;;4968920;29;20126;-86
2024/03/14 07:11:11;;;;;;;17.15;10.93;;;9.20;99.90;;;;;;4967387;29;20053;-86
2024/03/14 07:13:38;;;;;;;19.58;11.30;;;8.90;99.90;;;;;;4961878;29;20039;-86
2024/03/14 07:16:11;;;;;;;17.63;11.00;;;8.90;99.90;;;;;;4963459;29;20119;-86
2024/03/14 07:18:40;;;;;;;20.25;10.95;;;9.00;99.90;;;;;;4963878;29;20411;-86
2024/03/14 07:21:07;;;;;;;17.13;11.20;;;9.10;99.90;;;;;;4962807;29;20047;-86
2024/03/14 07:23:33;;;;;;;20.17;11.65;;;9.60;99.90;;;;;;4961240;29;20031;-86
2024/03/14 07:26:02;;;;;;;19.08;10.82;;;9.40;99.90;;;;;;4968721;29;20054;-86
2024/03/14 07:28:31;;;;;;;17.52;10.70;;;9.60;99.90;;;;;;4962543;29;20050;-86
2024/03/14 07:30:58;;;;;;;18.20;11.07;;;9.30;99.90;;;;;;4972362;29;20043;-86
2024/03/14 07:33:25;;;;;;;19.52;11.35;;;9.50;99.90;;;;;;4973666;29;20043;-86
2024/03/14 07:35:53;;;;;;;17.58;11.45;;;9.50;99.90;;;;;;4974311;29;20047;-85
2024/03/14 07:38:27;;;;;;;17.98;11.50;;;10.10;99.90;;;;;;4979687;29;20039;-86
2024/03/14 07:40:54;;;;;;;18.38;10.68;;;9.40;99.90;;;;;;4956998;29;20148;-86
2024/03/14 07:43:20;;;;;;;18.75;11.02;;;9.40;99.90;;;;;;4989438;29;20521;-86
2024/03/14 07:45:47;;;;;;;18.08;11.45;;;9.50;99.90;;;;;;4975390;29;20059;-86
2024/03/14 07:48:17;;;;;;;17.08;11.23;;;9.50;99.90;;;;;;4981820;29;20551;-86
2024/03/14 07:50:44;;;;;;;18.42;11.65;;;9.60;99.90;;;;;;4954175;29;20055;-86
2024/03/14 07:53:12;;;;;;;17.67;11.50;;;9.70;99.90;;;;;;4966242;29;20122;-85
2024/03/14 07:55:39;;;;;;;17.67;11.27;;;9.80;99.90;;;;;;4960488;29;20039;-86
2024/03/14 07:58:08;;;;;;;19.80;11.43;;;9.90;99.90;;;;;;4960242;29;20528;-86
2024/03/14 08:00:34;;;;;;;19.67;11.15;;;10.40;99.90;;;;;;4971546;29;20040;-86
2024/03/14 08:03:01;;;;;;;17.55;11.13;;;10.10;99.90;;;;;;4974024;29;20122;-85
2024/03/14 08:05:31;;;;;;;20.08;12.10;;;10.00;99.90;;;;;;4965697;29;20036;-86
2024/03/14 08:07:59;;;;;;;18.95;11.35;;;10.10;99.90;;;;;;4964692;29;20047;-87
2024/03/14 08:10:27;;;;;;;20.40;10.50;;;10.40;99.90;;;;;;4970213;29;20079;-87
2024/03/14 08:12:57;;;;;;;19.45;11.05;;;10.30;99.90;;;;;;4986191;29;20058;-87
2024/03/14 08:15:36;;;;;;;19.83;11.75;;;10.40;99.90;;;;;;4971852;29;20043;-87
2024/03/14 08:18:07;;;;;;;15.50;10.10;;;10.50;99.90;;;;;;4973325;29;20046;-87
2024/03/14 08:20:36;;;;;;;19.23;10.68;;;10.60;99.90;;;;;;4962513;29;20044;-87
2024/03/14 08:23:04;;;;;;;19.45;11.32;;;11.20;99.90;;;;;;4982862;29;20050;-87
2024/03/14 08:25:36;;;;;;;18.65;10.98;;;10.70;99.90;;;;;;4973302;29;20118;-87
2024/03/14 08:28:04;;;;;;;18.15;11.13;;;10.90;99.90;;;;;;4983322;29;20047;-87
2024/03/14 08:30:31;;;;;;;18.85;11.75;;;10.90;99.90;;;;;;4971347;29;20078;-87
2024/03/14 08:32:58;;;;;;;17.13;10.98;;;10.90;99.90;;;;;;4963924;29;20127;-87
2024/03/14 08:35:24;;;;;;;18.15;10.85;;;11.00;99.90;;;;;;4970047;29;20126;-87
2024/03/14 08:37:51;;;;;;;18.30;11.38;;;11.00;99.90;;;;;;4980409;29;20122;-87
2024/03/14 08:40:17;;;;;;;19.05;11.18;;;11.00;99.90;;;;;;4966433;29;20043;-87
2024/03/14 08:42:45;;;;;;;18.52;10.93;;;11.00;99.90;;;;;;4966661;29;20543;-87
2024/03/14 08:45:15;;;;;;;18.95;10.98;;;11.20;99.90;;;;;;4972735;29;20047;-87
2024/03/14 08:47:42;;;;;;;17.60;10.88;;;11.00;99.90;;;;;;4965031;29;20408;-87
2024/03/14 08:50:14;;;;;;;18.50;11.65;;;11.50;99.90;;;;;;4959536;29;20503;-87
2024/03/14 08:52:41;;;;;;;18.67;12.48;;;11.30;99.90;;;;;;4964258;29;20035;-87
2024/03/14 08:56:13;;;;;;;19.00;11.15;;;11.30;99.90;;;;;;4967564;29;20061;-89
2024/03/14 08:58:08;;;;;;;20.10;11.35;;;11.30;99.90;;;;;;4962993;29;20043;-88
2024/03/14 09:00:35;;;;;;;17.83;10.02;;;11.40;99.90;;;;;;4966967;29;20051;-88
2024/03/14 09:03:03;;;;;;;14.80;10.15;;;12.20;99.90;;;;;;4960169;29;20043;-88
2024/03/14 09:05:31;;;;;;;15.77;10.40;;;11.60;99.90;;;;;;4962177;29;20042;-88
2024/03/14 09:07:58;;;;;;;15.68;10.07;;;11.70;99.90;;;;;;4964021;29;20047;-88
2024/03/14 09:10:25;;;;;;;16.52;10.55;;;11.80;99.90;;;;;;4969163;29;20062;-88
2024/03/14 09:12:52;;;;;;;14.93;10.05;;;12.00;99.90;;;;;;4969450;29;20039;-87
2024/03/14 09:15:20;;;;;;;14.85;9.80;;;12.20;99.90;;;;;;4969121;29;20039;-87
2024/03/14 09:17:47;;;;;;;14.10;9.20;;;12.50;99.90;;;;;;4967765;29;20039;-88
2024/03/14 09:20:16;;;;;;;17.00;9.63;;;12.40;99.90;;;;;;4968909;29;20051;-88
2024/03/14 09:22:45;;;;;;;13.15;9.02;;;12.50;99.90;;;;;;4967455;29;20040;-87
2024/03/14 09:25:14;;;;;;;13.73;9.20;;;12.50;99.90;;;;;;4963578;29;20031;-89
2024/03/14 09:27:42;;;;;;;14.25;9.25;;;12.80;99.90;;;;;;4967087;29;20043;-88
2024/03/14 09:30:09;;;;;;;14.68;9.48;;;12.70;99.90;;;;;;4980272;29;20094;-88
2024/03/14 09:32:36;;;;;;;13.30;9.13;;;12.70;99.90;;;;;;4967855;29;20046;-89
2024/03/14 09:35:12;;;;;;;13.88;9.88;;;12.80;99.90;;;;;;4955777;29;20485;-88
2024/03/14 09:37:38;;;;;;;15.90;9.45;;;12.90;99.90;;;;;;4964025;29;20036;-88
2024/03/14 09:40:06;;;;;;;13.48;8.85;;;13.00;99.90;;;;;;4962486;29;20043;-89
2024/03/14 09:42:33;;;;;;;14.85;8.68;;;13.10;99.90;;;;;;4966237;29;20051;-87
2024/03/14 09:45:01;;;;;;;12.40;8.75;;;13.30;99.90;;;;;;4972358;29;20054;-87
2024/03/14 09:47:37;;;;;;;13.05;8.38;;;13.50;99.90;;;;;;4969933;29;20046;-87
2024/03/14 09:50:08;;;;;;;13.15;8.23;;;13.30;99.90;;;;;;4964790;29;20048;-87
2024/03/14 09:52:36;;;;;;;13.23;8.77;;;13.40;99.90;;;;;;4963659;29;20067;-87
2024/03/14 09:55:03;;;;;;;14.73;8.65;;;13.40;99.90;;;;;;4966324;29;20039;-87
2024/03/14 09:57:29;;;;;;;12.30;8.50;;;13.40;99.90;;;;;;4971784;29;20046;-87
2024/03/14 09:59:57;;;;;;;12.35;8.30;;;13.50;99.90;;;;;;4971050;29;20735;-87
2024/03/14 10:02:30;;;;;;;15.63;7.85;;;13.30;99.90;;;;;;4963961;29;20485;-87
2024/03/14 10:04:57;;;;;;;14.00;8.32;;;13.40;99.90;;;;;;4978254;29;20094;-87
2024/03/14 10:07:23;;;;;;;13.27;8.73;;;13.70;99.90;;;;;;4962314;29;20047;-87
2024/03/14 10:09:50;;;;;;;12.90;8.55;;;13.50;99.90;;;;;;4958741;29;20519;-87
2024/03/14 10:12:17;;;;;;;11.25;7.88;;;13.40;99.90;;;;;;4960840;29;20059;-88
2024/03/14 10:14:44;;;;;;;11.38;7.50;;;13.40;99.90;;;;;;4971215;29;20078;-87
2024/03/14 10:17:11;;;;;;;11.70;8.15;;;13.50;99.90;;;;;;4968972;29;20043;-87
2024/03/14 10:19:37;;;;;;;10.98;7.47;;;13.50;99.90;;;;;;4991461;29;20062;-87
2024/03/14 10:22:05;;;;;;;10.75;7.38;;;13.60;99.90;;;;;;4971709;29;20188;-87
2024/03/14 10:24:33;;;;;;;12.23;7.55;;;13.70;99.90;;;;;;4964631;29;20071;-85
2024/03/14 10:27:00;;;;;;;11.05;6.90;;;13.80;99.90;;;;;;4966399;29;20035;-86
2024/03/14 10:29:32;;;;;;;11.25;6.88;;;14.00;99.90;;;;;;4967103;29;20759;-86
2024/03/14 10:32:00;;;;;;;12.93;7.45;;;14.00;99.90;;;;;;4970244;29;20090;-86
2024/03/14 10:34:27;;;;;;;11.30;7.38;;;14.10;99.90;;;;;;4976838;29;20118;-86
2024/03/14 10:36:54;;;;;;;13.13;7.35;;;14.20;99.90;;;;;;4971638;29;20126;-86
2024/03/14 10:39:28;;;;;;;9.30;6.85;;;14.30;99.90;;;;;;4964386;29;20036;-86
2024/03/14 10:41:55;;;;;;;9.85;6.90;;;14.30;99.90;;;;;;4979021;29;20489;-85
2024/03/14 10:44:22;;;;;;;12.55;6.60;;;14.40;99.90;;;;;;4987289;29;20045;-86
2024/03/14 10:46:50;;;;;;;10.25;6.85;;;14.50;99.90;;;;;;4969101;29;20031;-86
2024/03/14 10:49:22;;;;;;;11.10;6.75;;;14.60;99.90;;;;;;4973464;29;20043;-87
2024/03/14 10:51:49;;;;;;;9.43;6.63;;;14.70;99.90;;;;;;4965286;29;20083;-87
2024/03/14 10:54:26;;;;;;;10.60;6.50;;;14.90;99.90;;;;;;4970259;29;20051;-86
2024/03/14 10:56:55;;;;;;;10.52;6.50;;;15.10;99.90;;;;;;4972167;29;20130;-86
2024/03/14 10:59:23;;;;;;;10.43;6.25;;;15.20;99.90;;;;;;4962021;29;20404;-86
2024/03/14 11:01:53;;;;;;;11.07;5.85;;;15.20;99.90;;;;;;4967371;29;20035;-86
2024/03/14 11:04:20;;;;;;;10.65;6.18;;;15.30;99.90;;;;;;4974276;29;20098;-86
2024/03/14 11:06:54;;;;;;;8.90;5.72;;;15.20;99.90;;;;;;4970989;29;20448;-86
2024/03/14 11:09:25;;;;;;;8.50;5.75;;;15.30;99.90;;;;;;4974432;29;20062;-86
2024/03/14 11:12:03;;;;;;;11.07;6.35;;;15.20;99.90;;;;;;4982592;29;20043;-88
2024/03/14 11:14:51;;;;;;;9.30;6.70;;;15.10;99.90;;;;;;4970179;29;20047;-87
2024/03/14 11:17:20;;;;;;;8.80;6.28;;;15.10;99.90;;;;;;4974219;29;20085;-88
2024/03/14 11:19:51;;;;;;;9.30;6.07;;;15.00;99.90;;;;;;4955647;29;20497;-86
2024/03/14 11:22:20;;;;;;;9.98;5.97;;;14.90;99.90;;;;;;4968783;29;20047;-88
2024/03/14 11:24:51;;;;;;;9.05;6.10;;;14.90;99.90;;;;;;4973153;29;20556;-88
2024/03/14 11:27:20;;;;;;;9.73;6.10;;;14.80;99.90;;;;;;4983509;29;20563;-88
2024/03/14 11:29:48;;;;;;;8.73;5.78;;;14.90;99.90;;;;;;4963054;29;20047;-87
2024/03/14 11:32:22;;;;;;;8.45;5.53;;;14.90;99.90;;;;;;4965262;29;20122;-87
2024/03/14 11:34:48;;;;;;;8.85;5.78;;;14.90;99.90;;;;;;4968781;29;20504;-87
2024/03/14 11:37:16;;;;;;;8.57;6.05;;;14.90;99.90;;;;;;4965176;29;20050;-87
2024/03/14 11:39:47;;;;;;;9.82;6.38;;;14.90;99.90;;;;;;4959563;29;20456;-87
2024/03/14 11:42:16;;;;;;;8.35;5.68;;;14.90;99.90;;;;;;4963161;29;20043;-88
2024/03/14 11:44:44;;;;;;;9.93;6.15;;;14.90;99.90;;;;;;4962022;29;20038;-88
2024/03/14 11:47:16;;;;;;;9.38;6.00;;;14.80;99.90;;;;;;4959923;29;20040;-88
2024/03/14 11:49:49;;;;;;;10.52;5.68;;;15.10;99.90;;;;;;4959091;29;20079;-87
2024/03/14 11:52:16;;;;;;;9.00;5.88;;;15.10;99.90;;;;;;4957775;29;20175;-87
2024/03/14 11:54:42;;;;;;;9.18;5.85;;;15.20;99.90;;;;;;4966018;29;20083;-87
2024/03/14 11:57:15;;;;;;;9.65;5.65;;;15.20;99.90;;;;;;4969333;29;20548;-87
2024/03/14 11:59:41;;;;;;;8.70;5.80;;;15.10;99.90;;;;;;4966212;29;20043;-87
2024/03/14 12:02:08;;;;;;;8.30;6.00;;;15.20;99.90;;;;;;4973199;29;20043;-87
2024/03/14 12:04:35;;;;;;;11.57;5.55;;;15.20;99.90;;;;;;4969522;29;20039;-88
2024/03/14 12:07:07;;;;;;;10.82;6.30;;;15.20;99.90;;;;;;4969182;29;20050;-88
2024/03/14 12:09:35;;;;;;;8.23;5.03;;;15.30;99.90;;;;;;4973365;29;20059;-88
2024/03/14 12:12:03;;;;;;;7.88;5.47;;;15.30;99.90;;;;;;4965866;29;20408;-87
2024/03/14 12:14:29;;;;;;;7.90;5.25;;;15.20;99.90;;;;;;4972174;29;20035;-88
2024/03/14 12:16:56;;;;;;;7.95;5.50;;;15.30;99.90;;;;;;4955540;29;20174;-87
2024/03/14 12:19:25;;;;;;;7.75;4.72;;;15.20;99.90;;;;;;4955495;29;20078;-87
2024/03/14 12:21:52;;;;;;;8.20;4.75;;;15.10;99.90;;;;;;4962884;29;20067;-87
2024/03/14 12:24:18;;;;;;;7.53;4.88;;;15.20;99.90;;;;;;4961479;29;20071;-87
2024/03/14 12:26:47;;;;;;;10.32;5.95;;;15.30;99.90;;;;;;4966961;29;20054;-87
2024/03/14 12:29:13;;;;;;;6.65;4.80;;;15.40;99.90;;;;;;4962871;29;20035;-87
2024/03/14 12:31:41;;;;;;;8.68;5.70;;;15.40;99.90;;;;;;4959434;29;20047;-87
2024/03/14 12:34:09;;;;;;;8.00;5.45;;;15.40;99.90;;;;;;4959965;29;20456;-87
2024/03/14 12:36:36;;;;;;;7.22;5.00;;;15.50;99.90;;;;;;4954234;29;20094;-87
2024/03/14 12:39:05;;;;;;;6.65;4.45;;;15.50;99.90;;;;;;4965113;29;20512;-88
2024/03/14 12:41:33;;;;;;;6.88;4.53;;;15.40;99.90;;;;;;4972540;29;20496;-87
2024/03/14 12:44:00;;;;;;;8.02;4.85;;;15.40;99.90;;;;;;4961883;29;20412;-88
2024/03/14 12:46:28;;;;;;;8.55;4.90;;;15.40;99.90;;;;;;4988328;29;20035;-87